createdAt,value
2023-05-14T00:01:15.372Z,20.00
2023-05-14T00:03:44.384Z,19.10
2023-05-14T00:06:13.464Z,18.50
2023-05-14T00:08:42.454Z,16.30
2023-05-14T00:11:11.348Z,18.50
2023-05-14T00:13:40.133Z,17.10
2023-05-14T00:16:09.081Z,15.60
2023-05-14T00:18:38.100Z,15.00
2023-05-14T00:21:07.140Z,16.00
2023-05-14T00:23:36.009Z,15.90
2023-05-14T00:26:05.519Z,17.40
2023-05-14T00:28:34.309Z,16.70
2023-05-14T00:31:03.350Z,17.20
2023-05-14T00:33:33.366Z,21.10
2023-05-14T00:36:02.259Z,16.80
2023-05-14T00:38:31.234Z,15.60
2023-05-14T00:41:00.201Z,18.10
2023-05-14T00:43:29.133Z,16.80
2023-05-14T00:45:57.812Z,16.50
2023-05-14T00:48:26.834Z,16.70
2023-05-14T00:50:55.639Z,18.80
2023-05-14T00:53:25.018Z,16.40
2023-05-14T00:55:53.808Z,17.20
2023-05-14T00:58:23.108Z,17.30
2023-05-14T01:00:52.259Z,18.00
2023-05-14T01:03:21.147Z,18.80
2023-05-14T01:06:19.038Z,18.90
2023-05-14T01:09:03.587Z,17.40
2023-05-14T01:12:06.102Z,21.60
2023-05-14T01:15:06.780Z,20.70
2023-05-14T01:17:58.420Z,19.50
2023-05-14T01:20:27.347Z,21.20
2023-05-14T01:22:56.093Z,16.80
2023-05-14T01:25:25.260Z,17.80
2023-05-14T01:28:02.996Z,15.80
2023-05-14T01:30:54.528Z,15.80
2023-05-14T01:33:26.182Z,18.60
2023-05-14T01:35:56.304Z,16.90
2023-05-14T01:38:26.220Z,15.90
2023-05-14T01:40:56.336Z,16.50
2023-05-14T01:43:25.081Z,15.30
2023-05-14T01:45:55.724Z,17.10
2023-05-14T01:48:24.737Z,16.50
2023-05-14T01:50:53.699Z,16.70
2023-05-14T01:53:22.424Z,16.70
2023-05-14T01:55:51.177Z,18.90
2023-05-14T01:58:20.309Z,20.00
2023-05-14T02:00:49.199Z,17.40
2023-05-14T02:03:18.019Z,17.80
2023-05-14T02:05:46.872Z,21.30
2023-05-14T02:08:16.077Z,16.80
2023-05-14T02:10:44.864Z,19.00
2023-05-14T02:13:13.663Z,16.70
2023-05-14T02:15:42.543Z,17.50
2023-05-14T02:18:11.462Z,16.60
2023-05-14T02:20:40.345Z,16.30
2023-05-14T02:23:09.427Z,17.40
2023-05-14T02:25:38.346Z,18.30
2023-05-14T02:28:07.208Z,17.60
2023-05-14T02:30:36.046Z,18.40
2023-05-14T02:33:04.986Z,18.20
2023-05-14T02:35:33.999Z,17.30
2023-05-14T02:38:03.507Z,17.60
2023-05-14T02:40:32.384Z,23.60
2023-05-14T02:43:00.986Z,20.00
2023-05-14T02:45:29.863Z,20.50
2023-05-14T02:47:58.686Z,18.70
2023-05-14T02:50:27.960Z,17.40
2023-05-14T02:52:56.850Z,18.70
2023-05-14T02:55:26.756Z,15.20
2023-05-14T02:57:55.444Z,19.00
2023-05-14T03:00:24.996Z,20.20
2023-05-14T03:02:54.309Z,17.60
2023-05-14T03:05:23.551Z,21.20
2023-05-14T03:07:53.935Z,19.80
2023-05-14T03:10:22.968Z,21.10
2023-05-14T03:12:52.392Z,21.00
2023-05-14T03:15:21.184Z,18.40
2023-05-14T03:17:50.214Z,21.10
2023-05-14T03:20:19.159Z,18.90
2023-05-14T03:22:48.064Z,16.80
2023-05-14T03:25:17.066Z,20.90
2023-05-14T03:27:46.550Z,21.60
2023-05-14T03:30:15.444Z,27.00
2023-05-14T03:32:45.629Z,21.30
2023-05-14T03:35:14.473Z,24.10
2023-05-14T03:37:43.752Z,22.20
2023-05-14T03:40:13.185Z,25.70
2023-05-14T03:42:41.962Z,30.00
2023-05-14T03:45:12.377Z,23.00
2023-05-14T03:47:42.250Z,24.20
2023-05-14T03:50:11.511Z,23.10
2023-05-14T03:52:41.202Z,23.20
2023-05-14T03:55:10.909Z,23.00
2023-05-14T03:57:40.970Z,26.20
2023-05-14T04:00:11.331Z,21.70
2023-05-14T04:02:45.614Z,19.90
2023-05-14T04:05:14.802Z,21.80
2023-05-14T04:07:45.505Z,21.20
2023-05-14T04:10:14.804Z,21.40
2023-05-14T04:12:43.716Z,19.20
2023-05-14T04:15:13.005Z,19.90
2023-05-14T04:17:41.659Z,18.90
2023-05-14T04:20:10.890Z,18.80
2023-05-14T04:22:39.783Z,20.40
2023-05-14T04:25:09.345Z,16.60
2023-05-14T04:27:38.273Z,21.30
2023-05-14T04:30:08.641Z,17.80
2023-05-14T04:32:38.215Z,16.20
2023-05-14T04:35:09.255Z,22.10
2023-05-14T04:37:38.062Z,17.20
2023-05-14T04:40:10.614Z,22.10
2023-05-14T04:42:39.809Z,15.10
2023-05-14T04:45:09.394Z,19.40
2023-05-14T04:47:38.377Z,16.30
2023-05-14T04:50:09.931Z,20.80
2023-05-14T04:52:39.646Z,19.60
2023-05-14T04:55:09.356Z,20.10
2023-05-14T04:57:38.094Z,19.40
2023-05-14T05:00:09.734Z,19.70
2023-05-14T05:02:38.484Z,16.90
2023-05-14T05:05:08.236Z,15.50
2023-05-14T05:07:37.025Z,17.10
2023-05-14T05:10:07.085Z,16.00
2023-05-14T05:12:35.838Z,15.20
2023-05-14T05:15:06.021Z,18.90
2023-05-14T05:17:34.742Z,16.30
2023-05-14T05:20:05.731Z,18.70
2023-05-14T05:22:34.405Z,17.20
2023-05-14T05:25:06.743Z,16.00
2023-05-14T05:27:35.535Z,15.40
2023-05-14T05:30:05.181Z,20.40
2023-05-14T05:32:34.168Z,21.90
2023-05-14T05:35:03.815Z,20.40
2023-05-14T05:37:32.644Z,18.00
2023-05-14T05:40:01.528Z,22.40
2023-05-14T05:42:30.423Z,16.60
2023-05-14T05:44:59.310Z,17.60
2023-05-14T05:47:28.226Z,15.10
2023-05-14T05:49:57.292Z,17.40
2023-05-14T05:52:26.293Z,16.90
2023-05-14T05:54:55.081Z,15.90
2023-05-14T05:57:26.208Z,16.60
2023-05-14T05:59:55.290Z,15.30
2023-05-14T06:02:25.439Z,19.90
2023-05-14T06:04:54.378Z,18.20
2023-05-14T06:07:23.336Z,16.80
2023-05-14T06:09:52.158Z,16.60
2023-05-14T06:12:22.042Z,13.60
2023-05-14T06:14:51.647Z,14.10
2023-05-14T06:17:20.547Z,28.80
2023-05-14T06:19:49.430Z,14.70
2023-05-14T06:22:18.623Z,17.30
2023-05-14T06:24:48.753Z,14.30
2023-05-14T06:27:17.445Z,22.60
2023-05-14T06:29:46.159Z,16.00
2023-05-14T06:32:15.876Z,12.00
2023-05-14T06:34:44.716Z,13.40
2023-05-14T06:37:13.620Z,13.40
2023-05-14T06:39:48.425Z,11.90
2023-05-14T06:42:17.939Z,10.90
2023-05-14T06:44:46.693Z,12.40
2023-05-14T06:47:15.530Z,12.30
2023-05-14T06:49:44.259Z,14.10
2023-05-14T06:52:13.054Z,13.40
2023-05-14T06:54:41.731Z,13.00
2023-05-14T06:57:10.721Z,10.60
2023-05-14T06:59:39.459Z,11.20
2023-05-14T07:02:08.177Z,12.60
2023-05-14T07:04:37.290Z,20.20
2023-05-14T07:07:06.254Z,14.60
2023-05-14T07:09:35.248Z,16.50
2023-05-14T07:12:04.818Z,17.10
2023-05-14T07:14:33.555Z,12.90
2023-05-14T07:17:02.476Z,9.60
2023-05-14T07:19:31.214Z,9.70
2023-05-14T07:21:59.919Z,12.20
2023-05-14T07:24:28.589Z,10.80
2023-05-14T07:26:57.676Z,9.70
2023-05-14T07:29:26.512Z,8.70
2023-05-14T07:31:55.226Z,9.10
2023-05-14T07:34:23.857Z,10.10
2023-05-14T07:36:53.240Z,12.40
2023-05-14T07:39:21.991Z,9.50
2023-05-14T07:41:51.785Z,8.80
2023-05-14T07:44:20.889Z,8.80
2023-05-14T07:46:49.593Z,9.40
2023-05-14T07:49:18.401Z,8.00
2023-05-14T07:51:47.052Z,7.30
2023-05-14T07:54:15.928Z,8.40
2023-05-14T07:56:44.813Z,6.80
2023-05-14T07:59:13.700Z,7.80
2023-05-14T08:01:42.814Z,8.00
2023-05-14T08:04:16.583Z,12.10
2023-05-14T08:06:45.684Z,7.00
2023-05-14T08:09:14.547Z,8.30
2023-05-14T08:11:43.318Z,9.50
2023-05-14T08:14:12.033Z,9.70
2023-05-14T08:16:40.989Z,8.60
2023-05-14T08:19:09.968Z,7.20
2023-05-14T08:21:38.760Z,8.60
2023-05-14T08:24:08.095Z,7.50
2023-05-14T08:26:37.227Z,6.40
2023-05-14T08:29:06.007Z,8.00
2023-05-14T08:31:34.741Z,9.20
2023-05-14T08:34:03.903Z,6.10
2023-05-14T08:36:33.166Z,6.20
2023-05-14T08:39:01.918Z,6.70
2023-05-14T08:41:30.708Z,8.70
2023-05-14T08:44:15.251Z,8.40
2023-05-14T08:46:44.945Z,8.00
2023-05-14T08:49:43.822Z,7.20
2023-05-14T08:52:13.539Z,8.30
2023-05-14T08:54:42.437Z,8.50
2023-05-14T08:57:11.971Z,5.90
2023-05-14T08:59:41.550Z,7.30
2023-05-14T09:02:13.872Z,10.10
2023-05-14T09:04:43.491Z,6.60
2023-05-14T09:07:12.912Z,5.50
2023-05-14T09:09:41.957Z,8.40
2023-05-14T09:12:10.803Z,5.60
2023-05-14T09:14:39.831Z,10.20
2023-05-14T09:17:08.977Z,5.20
2023-05-14T09:19:39.352Z,5.00
2023-05-14T09:22:17.527Z,6.40
2023-05-14T09:24:47.321Z,7.80
2023-05-14T09:27:20.921Z,7.10
2023-05-14T09:29:49.629Z,6.80
2023-05-14T09:32:18.350Z,10.90
2023-05-14T09:34:47.025Z,5.90
2023-05-14T09:37:15.845Z,6.00
2023-05-14T09:39:44.614Z,6.50
2023-05-14T09:42:13.337Z,5.50
2023-05-14T09:44:42.302Z,5.60
2023-05-14T09:47:11.020Z,14.40
2023-05-14T09:49:40.625Z,5.70
2023-05-14T09:52:09.534Z,9.50
2023-05-14T09:54:39.038Z,5.80
2023-05-14T09:57:07.777Z,4.60
2023-05-14T09:59:36.416Z,5.80
2023-05-14T10:02:06.978Z,7.30
2023-05-14T10:04:37.161Z,9.60
2023-05-14T10:07:06.102Z,7.20
2023-05-14T10:09:38.859Z,10.20
2023-05-14T10:12:08.832Z,8.50
2023-05-14T10:14:43.393Z,8.90
2023-05-14T10:17:18.693Z,6.60
2023-05-14T10:19:53.004Z,8.10
2023-05-14T10:22:26.043Z,7.00
2023-05-14T10:24:56.643Z,19.20
2023-05-14T10:27:26.077Z,7.10
2023-05-14T10:29:56.313Z,7.10
2023-05-14T10:32:26.743Z,5.90
2023-05-14T10:34:55.899Z,7.60
2023-05-14T10:37:28.457Z,6.90
2023-05-14T10:40:06.437Z,11.90
2023-05-14T10:42:43.709Z,6.60
2023-05-14T10:45:15.247Z,6.10
2023-05-14T10:47:47.049Z,7.80
2023-05-14T10:50:16.520Z,6.20
2023-05-14T10:52:46.474Z,9.80
2023-05-14T10:55:17.183Z,7.60
2023-05-14T10:57:47.225Z,8.40
2023-05-14T11:00:16.782Z,9.90
2023-05-14T11:02:47.183Z,8.50
2023-05-14T11:05:20.170Z,5.50
2023-05-14T11:07:50.483Z,8.40
2023-05-14T11:10:22.421Z,7.40
2023-05-14T11:15:26.374Z,5.50
2023-05-14T11:17:55.263Z,7.80
2023-05-14T11:20:24.361Z,11.60
2023-05-14T11:22:53.311Z,16.00
2023-05-14T11:25:22.981Z,10.20
2023-05-14T11:27:52.505Z,8.80
2023-05-14T11:30:22.230Z,6.20
2023-05-14T11:32:51.776Z,9.40
2023-05-14T11:35:20.531Z,7.10
2023-05-14T11:37:52.908Z,5.60
2023-05-14T11:40:22.326Z,8.30
2023-05-14T11:42:53.689Z,5.10
2023-05-14T11:45:30.160Z,10.40
2023-05-14T11:47:58.967Z,6.90
2023-05-14T11:50:27.771Z,6.20
2023-05-14T11:52:59.620Z,5.80
2023-05-14T11:55:28.464Z,7.30
2023-05-14T11:57:57.398Z,7.30
2023-05-14T12:00:27.218Z,4.80
2023-05-14T12:02:56.620Z,8.00
2023-05-14T12:05:26.097Z,7.50
2023-05-14T12:07:56.385Z,5.90
2023-05-14T12:10:25.771Z,7.10
2023-05-14T12:12:54.903Z,4.70
2023-05-14T12:15:23.792Z,4.90
2023-05-14T12:17:52.731Z,4.40
2023-05-14T12:20:23.408Z,3.90
2023-05-14T12:22:52.943Z,4.10
2023-05-14T12:25:21.912Z,5.00
2023-05-14T12:27:50.630Z,4.90
2023-05-14T12:30:21.444Z,5.80
2023-05-14T12:32:53.125Z,3.60
2023-05-14T12:35:23.383Z,4.20
2023-05-14T12:37:52.356Z,9.50
2023-05-14T12:40:21.274Z,5.80
2023-05-14T12:42:50.147Z,7.60
2023-05-14T12:45:19.037Z,7.20
2023-05-14T12:47:47.835Z,7.50
2023-05-14T12:50:16.633Z,6.00
2023-05-14T12:52:46.715Z,5.10
2023-05-14T12:55:15.439Z,6.40
2023-05-14T12:57:45.193Z,3.90
2023-05-14T13:00:15.592Z,4.10
2023-05-14T13:02:44.662Z,4.20
2023-05-14T13:05:13.530Z,5.50
2023-05-14T13:07:42.777Z,6.30
2023-05-14T13:10:11.994Z,4.50
2023-05-14T13:12:41.084Z,7.90
2023-05-14T13:15:10.977Z,6.00
2023-05-14T13:17:41.508Z,4.10
2023-05-14T13:20:10.894Z,5.20
2023-05-14T13:22:39.812Z,5.90
2023-05-14T13:25:09.430Z,7.50
2023-05-14T13:27:38.142Z,4.50
2023-05-14T13:30:07.935Z,6.30
2023-05-14T13:32:36.736Z,6.30
2023-05-14T13:35:07.990Z,4.00
2023-05-14T13:37:37.016Z,7.70
2023-05-14T13:40:09.279Z,5.50
2023-05-14T13:42:39.893Z,5.60
2023-05-14T13:45:09.792Z,5.40
2023-05-14T13:47:40.077Z,6.70
2023-05-14T13:50:09.584Z,8.60
2023-05-14T13:52:39.252Z,9.40
2023-05-14T13:55:08.644Z,3.50
2023-05-14T13:57:37.490Z,6.30
2023-05-14T14:00:07.274Z,8.50
2023-05-14T14:02:36.022Z,6.60
2023-05-14T14:05:05.642Z,3.50
2023-05-14T14:07:34.345Z,6.10
2023-05-14T14:10:03.004Z,4.90
2023-05-14T14:12:31.800Z,8.10
2023-05-14T14:15:01.265Z,6.10
2023-05-14T14:17:30.011Z,5.40
2023-05-14T14:19:58.767Z,5.60
2023-05-14T14:22:29.106Z,8.60
2023-05-14T14:24:58.192Z,3.50
2023-05-14T14:27:26.962Z,6.50
2023-05-14T14:29:56.915Z,5.40
2023-05-14T14:32:25.824Z,5.60
2023-05-14T14:34:54.456Z,5.50
2023-05-14T14:37:24.040Z,6.30
2023-05-14T14:39:53.344Z,3.50
2023-05-14T14:42:22.092Z,6.10
2023-05-14T14:44:50.965Z,8.20
2023-05-14T14:47:19.675Z,7.20
2023-05-14T14:49:48.400Z,3.70
2023-05-14T14:52:17.243Z,10.80
2023-05-14T14:54:45.941Z,4.10
2023-05-14T14:57:14.625Z,6.80
2023-05-14T14:59:43.303Z,6.00
2023-05-14T15:02:12.040Z,5.90
2023-05-14T15:04:40.858Z,6.20
2023-05-14T15:07:09.574Z,6.30
2023-05-14T15:09:38.290Z,4.50
2023-05-14T15:12:09.139Z,6.20
2023-05-14T15:14:37.820Z,6.80
2023-05-14T15:17:06.576Z,5.70
2023-05-14T15:19:35.283Z,4.30
2023-05-14T15:22:04.557Z,4.70
2023-05-14T15:24:33.219Z,6.60
2023-05-14T15:27:01.967Z,8.70
2023-05-14T15:29:30.685Z,5.00
2023-05-14T15:31:59.480Z,4.90
2023-05-14T15:34:28.317Z,5.10
2023-05-14T15:36:57.077Z,6.40
2023-05-14T15:39:25.759Z,4.80
2023-05-14T15:41:54.466Z,5.10
2023-05-14T15:44:23.215Z,3.90
2023-05-14T15:46:52.084Z,5.90
2023-05-14T15:49:20.933Z,7.00
2023-05-14T15:51:49.742Z,4.80
2023-05-14T15:54:18.558Z,7.90
2023-05-14T15:56:47.524Z,4.90
2023-05-14T15:59:17.746Z,8.20
2023-05-14T16:01:46.510Z,6.20
2023-05-14T16:04:15.260Z,8.60
2023-05-14T16:06:45.401Z,5.60
2023-05-14T16:09:14.997Z,6.20
2023-05-14T16:11:43.678Z,6.80
2023-05-14T16:14:12.434Z,7.10
2023-05-14T16:16:41.326Z,5.70
2023-05-14T16:19:10.178Z,6.90
2023-05-14T16:21:38.972Z,6.20
2023-05-14T16:24:08.381Z,7.60
2023-05-14T16:26:37.119Z,6.40
2023-05-14T16:29:05.980Z,8.90
2023-05-14T16:31:34.725Z,5.80
2023-05-14T16:34:03.391Z,7.60
2023-05-14T16:36:32.416Z,6.00
2023-05-14T16:41:32.839Z,14.00
2023-05-14T16:44:01.667Z,7.90
2023-05-14T16:46:31.372Z,6.50
2023-05-14T16:49:00.185Z,7.50
2023-05-14T16:51:28.940Z,6.80
2023-05-14T16:53:57.679Z,10.00
2023-05-14T16:56:26.699Z,8.40
2023-05-14T16:58:55.447Z,13.50
2023-05-14T17:01:24.182Z,11.60
2023-05-14T17:03:52.836Z,10.70
2023-05-14T17:06:21.472Z,12.20
2023-05-14T17:08:50.148Z,9.90
2023-05-14T17:11:18.777Z,6.50
2023-05-14T17:14:01.563Z,7.70
2023-05-14T17:16:29.167Z,7.60
2023-05-14T17:18:56.676Z,10.70
2023-05-14T17:21:25.418Z,13.00
2023-05-14T17:23:54.075Z,13.00
2023-05-14T17:26:23.487Z,14.10
2023-05-14T17:28:52.138Z,10.40
2023-05-14T17:31:21.956Z,12.40
2023-05-14T17:33:50.631Z,16.20
2023-05-14T17:36:19.361Z,10.10
2023-05-14T17:38:48.263Z,11.60
2023-05-14T17:41:16.987Z,9.50
2023-05-14T17:43:45.726Z,11.00
2023-05-14T17:46:14.472Z,10.60
2023-05-14T17:48:43.151Z,10.90
2023-05-14T17:51:11.785Z,13.20
2023-05-14T17:53:40.442Z,9.70
2023-05-14T17:56:09.274Z,21.70
2023-05-14T17:58:38.005Z,25.40
2023-05-14T18:01:06.784Z,9.00
2023-05-14T18:03:35.699Z,9.50
2023-05-14T18:06:04.972Z,10.30
2023-05-14T18:08:33.653Z,14.40
2023-05-14T18:11:02.370Z,25.90
2023-05-14T18:13:31.116Z,12.70
2023-05-14T18:16:00.838Z,18.70
2023-05-14T18:18:29.622Z,15.20
2023-05-14T18:20:58.496Z,9.40
2023-05-14T18:23:27.326Z,12.40
2023-05-14T18:25:56.050Z,12.90
2023-05-14T18:28:24.823Z,13.00
2023-05-14T18:30:53.611Z,9.80
2023-05-14T18:33:22.430Z,14.00
2023-05-14T18:35:51.878Z,12.90
2023-05-14T18:38:20.715Z,11.40
2023-05-14T18:40:49.711Z,12.00
2023-05-14T18:43:19.904Z,12.60
2023-05-14T18:45:48.816Z,12.90
2023-05-14T18:48:17.762Z,14.50
2023-05-14T18:50:46.394Z,13.30
2023-05-14T18:53:15.342Z,10.90
2023-05-14T18:55:44.196Z,13.90
2023-05-14T18:58:13.239Z,9.80
2023-05-14T19:00:41.988Z,15.80
2023-05-14T19:03:10.933Z,14.00
2023-05-14T19:05:39.776Z,8.70
2023-05-14T19:08:08.488Z,9.40
2023-05-14T19:10:37.252Z,12.90
2023-05-14T19:13:06.039Z,12.20
2023-05-14T19:15:34.759Z,10.70
2023-05-14T19:18:03.596Z,16.90
2023-05-14T19:20:32.403Z,10.50
2023-05-14T19:23:01.095Z,12.30
2023-05-14T19:25:30.131Z,11.00
2023-05-14T19:28:01.702Z,12.10
2023-05-14T19:30:30.783Z,11.20
2023-05-14T19:32:59.680Z,12.10
2023-05-14T19:35:28.448Z,11.90
2023-05-14T19:37:57.267Z,7.80
2023-05-14T19:40:26.032Z,13.80
2023-05-14T19:42:54.707Z,8.00
2023-05-14T19:45:23.520Z,8.90
2023-05-14T19:47:52.469Z,8.90
2023-05-14T19:50:21.229Z,13.60
2023-05-14T19:52:49.948Z,14.30
2023-05-14T19:55:18.669Z,9.60
2023-05-14T19:57:47.424Z,8.10
2023-05-14T20:00:16.459Z,8.80
2023-05-14T20:02:45.145Z,8.50
2023-05-14T20:05:14.197Z,10.10
2023-05-14T20:07:43.945Z,9.90
2023-05-14T20:10:12.983Z,8.70
2023-05-14T20:12:41.727Z,8.30
2023-05-14T20:15:11.009Z,7.90
2023-05-14T20:17:39.911Z,11.30
2023-05-14T20:20:10.087Z,16.10
2023-05-14T20:22:40.090Z,7.40
2023-05-14T20:25:10.231Z,8.20
2023-05-14T20:27:39.102Z,8.40
2023-05-14T20:30:08.835Z,10.40
2023-05-14T20:32:37.724Z,9.10
2023-05-14T20:35:07.174Z,6.70
2023-05-14T20:37:36.022Z,13.90
2023-05-14T20:40:06.368Z,9.50
2023-05-14T20:42:36.540Z,10.60
2023-05-14T20:45:06.827Z,12.00
2023-05-14T20:47:35.800Z,8.80
2023-05-14T20:50:04.895Z,9.20
2023-05-14T20:52:33.579Z,9.60
2023-05-14T20:55:02.507Z,9.70
2023-05-14T20:57:31.341Z,11.00
2023-05-14T20:59:59.989Z,14.70
2023-05-14T21:02:28.732Z,8.60
2023-05-14T21:04:57.502Z,9.80
2023-05-14T21:07:27.607Z,9.20
2023-05-14T21:09:57.591Z,11.60
2023-05-14T21:12:26.268Z,11.20
2023-05-14T21:14:54.997Z,8.20
2023-05-14T21:17:23.743Z,10.00
2023-05-14T21:19:52.424Z,11.00
2023-05-14T21:22:22.813Z,9.40
2023-05-14T21:24:51.540Z,9.20
2023-05-14T21:27:20.220Z,9.80
2023-05-14T21:29:48.946Z,12.00
2023-05-14T21:32:18.112Z,10.00
2023-05-14T21:34:46.803Z,9.30
2023-05-14T21:37:15.856Z,9.20
2023-05-14T21:39:44.558Z,9.70
2023-05-14T21:42:13.295Z,9.90
2023-05-14T21:44:41.932Z,10.70
2023-05-14T21:47:11.590Z,9.10
2023-05-14T21:49:40.280Z,7.20
2023-05-14T21:52:09.068Z,8.20
2023-05-14T21:54:37.698Z,8.20
2023-05-14T21:57:06.654Z,8.30
2023-05-14T21:59:35.644Z,8.80
2023-05-14T22:02:07.348Z,10.40
2023-05-14T22:04:36.794Z,9.00
2023-05-14T22:07:05.677Z,9.70
2023-05-14T22:09:34.346Z,8.50
2023-05-14T22:12:03.057Z,9.80
2023-05-14T22:14:31.792Z,9.90
2023-05-14T22:17:00.477Z,9.90
2023-05-14T22:19:29.212Z,8.80
2023-05-14T22:21:57.867Z,7.40
2023-05-14T22:24:26.587Z,8.10
2023-05-14T22:26:55.295Z,7.00
2023-05-14T22:29:23.990Z,7.70
2023-05-14T22:31:52.886Z,7.80
2023-05-14T22:34:21.683Z,5.60
2023-05-14T22:36:50.356Z,7.70
2023-05-14T22:39:19.064Z,7.50
2023-05-14T22:41:47.748Z,10.70
2023-05-14T22:44:16.430Z,7.80
2023-05-14T22:46:45.140Z,8.20
2023-05-14T22:49:14.106Z,9.50
2023-05-14T22:51:42.998Z,5.60
2023-05-14T22:54:11.691Z,8.90
2023-05-14T22:56:40.384Z,7.00
2023-05-14T22:59:09.160Z,7.90
2023-05-14T23:01:38.453Z,5.70
2023-05-14T23:04:07.266Z,11.20
2023-05-14T23:06:35.973Z,11.10
2023-05-14T23:09:04.681Z,9.10
2023-05-14T23:11:33.370Z,9.00
2023-05-14T23:14:02.074Z,8.00
2023-05-14T23:16:30.807Z,7.00
2023-05-14T23:18:59.624Z,7.00
2023-05-14T23:21:28.332Z,9.70
2023-05-14T23:23:56.993Z,9.00
2023-05-14T23:26:25.718Z,10.20
2023-05-14T23:28:54.428Z,8.10
2023-05-14T23:31:23.097Z,6.40
2023-05-14T23:33:51.784Z,7.60
2023-05-14T23:36:20.671Z,9.40
2023-05-14T23:38:49.499Z,8.50
2023-05-14T23:41:18.265Z,5.60
2023-05-14T23:43:47.057Z,10.10
2023-05-14T23:46:16.416Z,12.60
2023-05-14T23:48:45.099Z,6.30
2023-05-14T23:51:13.736Z,5.60
2023-05-14T23:53:42.382Z,7.40
2023-05-14T23:56:12.116Z,7.90
2023-05-14T23:58:40.866Z,8.70
